deformed-offering
Saratoga-Weather Station Historical Data
 
Daily Summary for February 26, 2024 Units:  English    Metric   Both
Daily Weekly Monthly Yearly
  Current: High: Low: Average:
Temperature: 53.5 °F 53.5 °F 46.4 °F 48.5 °F
Dew Point: 51.9 °F 51.9 °F 44.2 °F 46.1 °F
Humidity: 94.5% 95.4% 83% 92%
Wind Speed: 2.6mph 3.5mph 0mph 0.4mph
Wind Gust: 7mph 7mph - -
WindNE - - SSW
Pressure: 30.01 in 30.05 in 30.00 in -
Precipitation: 0.00 in      
 
 
Tabular Data for February 26, 2024
Time Temperature Dew Point Pressure Wind Wind Speed Wind Gust Humidity Rainfall Rate (Hourly) solar
00:09 51.6 °F 46.7 °F 30.05 in Calm     83.3% 0.00 in 0 W/m2
00:14 51.4 °F 46.4 °F 30.05 in Calm     83% 0.00 in 0 W/m2
00:19 51.3 °F 46.3 °F 30.05 in Calm     83% 0.00 in 0 W/m2
00:24 51.1 °F 46.1 °F 30.05 in Calm   1 mph 83% 0.00 in 0 W/m2
00:29 51 °F 46.2 °F 30.04 in North 0.4 mph 1.2 mph 83.7% 0.00 in 0 W/m2
00:34 50.8 °F 46.1 °F 30.04 in NNW 0.8 mph 2.3 mph 84% 0.00 in 0 W/m2
00:39 50.5 °F 46.1 °F 30.04 in WNW 0.6 mph 2.3 mph 84.6% 0.00 in 0 W/m2
00:44 50.4 °F 46.1 °F 30.04 in WNW 0.3 mph 1.2 mph 85% 0.00 in 0 W/m2
00:49 50.2 °F 45.9 °F 30.04 in WNW 0.4 mph 1.2 mph 85% 0.00 in 0 W/m2
00:54 50 °F 45.9 °F 30.04 in WNW 0.2 mph 1.2 mph 85.5% 0.00 in 0 W/m2
00:59 49.8 °F 45.8 °F 30.04 in Calm   1 mph 86% 0.00 in 0 W/m2
01:04 49.7 °F 45.7 °F 30.03 in WNW 0.3 mph 1.2 mph 86% 0.00 in 0 W/m2
01:09 49.6 °F 45.6 °F 30.03 in WNW 0.4 mph 1.2 mph 86% 0.00 in 0 W/m2
01:14 49.4 °F 45.6 °F 30.03 in WNW 0.1 mph 1.2 mph 86.4% 0.00 in 0 W/m2
01:19 49.4 °F 45.7 °F 30.03 in WNW 0.1 mph 1.2 mph 87% 0.00 in 0 W/m2
01:24 49.2 °F 45.5 °F 30.03 in Calm   1.2 mph 87% 0.00 in 0 W/m2
01:29 49.1 °F 45.4 °F 30.03 in Calm   1 mph 87% 0.00 in 0 W/m2
01:34 49 °F 45.3 °F 30.03 in WNW 0.3 mph 1.2 mph 87% 0.00 in 0 W/m2
01:39 48.8 °F 45.3 °F 30.03 in West 0.8 mph 2.3 mph 87.4% 0.00 in 0 W/m2
01:44 48.8 °F 45.4 °F 30.03 in Calm   2 mph 88% 0.00 in 0 W/m2
01:49 48.7 °F 45.3 °F 30.03 in West 0.6 mph 2.3 mph 88% 0.00 in 0 W/m2
01:54 48.6 °F 45.2 °F 30.03 in West 0.9 mph 2.3 mph 88.1% 0.00 in 0 W/m2
01:59 48.5 °F 45.4 °F 30.02 in West 0.4 mph 2.3 mph 89% 0.00 in 0 W/m2
02:04 48.3 °F 45.2 °F 30.02 in Calm   2 mph 89% 0.00 in 0 W/m2
02:09 48.3 °F 45.2 °F 30.02 in Calm     89% 0.00 in 0 W/m2
02:14 48.2 °F 45.1 °F 30.02 in West 0.4 mph 2.3 mph 89% 0.00 in 0 W/m2
02:19 48 °F 44.9 °F 30.02 in WSW 1.3 mph 3.5 mph 89.1% 0.00 in 0 W/m2
02:24 47.9 °F 45.1 °F 30.02 in WSW 1 mph 3 mph 90% 0.00 in 0 W/m2
02:29 47.8 °F 45 °F 30.01 in WSW 0.2 mph 2 mph 90% 0.00 in 0 W/m2
02:34 47.7 °F 44.9 °F 30.02 in WSW 0.5 mph 1.2 mph 90% 0.00 in 0 W/m2
02:39 47.6 °F 44.8 °F 30.02 in WSW 1 mph 2.3 mph 90% 0.00 in 0 W/m2
02:44 47.5 °F 44.7 °F 30.02 in WSW 0.6 mph 2.3 mph 90% 0.00 in 0 W/m2
02:49 47.4 °F 44.6 °F 30.02 in WSW 0.1 mph 2 mph 90% 0.00 in 0 W/m2
02:54 47.3 °F 44.6 °F 30.01 in WSW 0.1 mph 1.2 mph 90% 0.00 in 0 W/m2
02:59 47.3 °F 44.7 °F 30.01 in WSW 0.1 mph 1.2 mph 90.6% 0.00 in 0 W/m2
03:04 47.3 °F 44.8 °F 30.01 in WSW 0.1 mph 1.2 mph 91% 0.00 in 0 W/m2
03:09 47.2 °F 44.7 °F 30.01 in WSW 0.1 mph 1.2 mph 91% 0.00 in 0 W/m2
03:14 47.2 °F 44.7 °F 30.01 in Calm   1 mph 91% 0.00 in 0 W/m2
03:19 47.2 °F 44.7 °F 30.01 in Calm     91% 0.00 in 0 W/m2
03:24 47.3 °F 44.8 °F 30.01 in Calm     91% 0.00 in 0 W/m2
03:29 47.3 °F 44.8 °F 30.01 in WSW 0.1 mph 1.2 mph 91% 0.00 in 0 W/m2
03:34 47.3 °F 44.8 °F 30.01 in Calm   1 mph 91% 0.00 in 0 W/m2
03:39 47.3 °F 44.8 °F 30.01 in Calm     91% 0.00 in 0 W/m2
03:44 47.4 °F 45 °F 30.01 in Calm     91.5% 0.00 in 0 W/m2
03:49 47.4 °F 45 °F 30.01 in Calm   1 mph 91.4% 0.00 in 0 W/m2
03:54 47.4 °F 45.2 °F 30.01 in Calm   1.2 mph 92% 0.00 in 0 W/m2
03:59 47.4 °F 45.2 °F 30.01 in Calm   1 mph 92% 0.00 in 0 W/m2
04:04 47.4 °F 45.2 °F 30.01 in Calm     92% 0.00 in 0 W/m2
04:09 47.4 °F 45.2 °F 30.01 in Calm     92% 0.00 in 0 W/m2
04:14 47.4 °F 45.2 °F 30.01 in Calm     92% 0.00 in 0 W/m2
04:19 47.4 °F 45.2 °F 30.01 in WSW 0.2 mph 1.2 mph 92% 0.00 in 0 W/m2
04:24 47.4 °F 45.2 °F 30.01 in Calm   1.2 mph 92% 0.00 in 0 W/m2
04:29 47.3 °F 45.1 °F 30.01 in Calm   1 mph 92% 0.00 in 0 W/m2
04:34 47.3 °F 45.1 °F 30.01 in WSW 0.2 mph 2 mph 92% 0.00 in 0 W/m2
04:39 47.3 °F 45.1 °F 30.01 in WSW 0.3 mph 2.3 mph 92% 0.00 in 0 W/m2
04:44 47.3 °F 45.1 °F 30.01 in WNW 0.7 mph 2.3 mph 92% 0.00 in 0 W/m2
04:49 47.3 °F 45.1 °F 30.02 in NW 0.4 mph 2.3 mph 92% 0.00 in 0 W/m2
04:54 47.2 °F 45 °F 30.02 in NW 0.1 mph 1.2 mph 92% 0.00 in 0 W/m2
04:59 47.1 °F 44.9 °F 30.02 in NW 0.6 mph 1.2 mph 92% 0.00 in 0 W/m2
05:04 47.1 °F 44.9 °F 30.02 in WNW 0.7 mph 2 mph 92% 0.00 in 0 W/m2
05:09 47 °F 44.8 °F 30.01 in South 1.3 mph 2.3 mph 92% 0.00 in 0 W/m2
05:14 47 °F 44.8 °F 30.01 in South 0.8 mph 2.3 mph 92% 0.00 in 0 W/m2
05:19 47 °F 44.8 °F 30.01 in South 0.7 mph 2.3 mph 92% 0.00 in 0 W/m2
05:24 46.9 °F 44.7 °F 30.01 in South 0.2 mph 2 mph 92% 0.00 in 0 W/m2
05:29 46.8 °F 44.6 °F 30.01 in Calm   1 mph 92% 0.00 in 0 W/m2
05:34 46.8 °F 44.6 °F 30.01 in Calm     92% 0.00 in 0 W/m2
05:39 46.7 °F 44.5 °F 30.01 in Calm     92% 0.00 in 0 W/m2
05:44 46.6 °F 44.4 °F 30.01 in South 0.1 mph 1.2 mph 92% 0.00 in 0 W/m2
05:49 46.5 °F 44.3 °F 30.01 in South 0.3 mph 1.2 mph 92% 0.00 in 0 W/m2
05:54 46.4 °F 44.2 °F 30.01 in South 1 mph 2.3 mph 92% 0.00 in 0 W/m2
05:59 46.4 °F 44.2 °F 30.01 in South 0.2 mph 2.3 mph 92% 0.00 in 0 W/m2
06:04 46.4 °F 44.3 °F 30.02 in South 0.4 mph 1.2 mph 92.4% 0.00 in 0 W/m2
06:09 46.4 °F 44.5 °F 30.02 in South 0.4 mph 3 mph 93% 0.00 in 0 W/m2
06:14 46.4 °F 44.5 °F 30.02 in WSW 0.2 mph 3.5 mph 93% 0.00 in 0 W/m2
06:19 46.4 °F 44.5 °F 30.02 in WSW 0.1 mph 1.2 mph 93% 0.00 in 0 W/m2
06:24 46.4 °F 44.5 °F 30.02 in Calm   1 mph 93% 0.00 in 0 W/m2
06:29 46.5 °F 44.6 °F 30.02 in Calm     93.1% 0.00 in 0 W/m2
06:34 46.6 °F 45 °F 30.02 in Calm     94% 0.00 in 0 W/m2
06:39 46.7 °F 45.1 °F 30.02 in Calm   1 mph 94% 0.00 in 0 W/m2
06:44 46.9 °F 45.3 °F 30.02 in WSW 0.2 mph 1.2 mph 94% 0.00 in 0 W/m2
06:49 47 °F 45.4 °F 30.02 in WSW 0.1 mph 1.2 mph 94% 0.00 in 5 W/m2
06:54 47.1 °F 45.5 °F 30.02 in Calm   1 mph 94% 0.00 in 16 W/m2
06:59 47.1 °F 45.5 °F 30.02 in Calm     94% 0.00 in 26 W/m2
07:04 47.2 °F 45.6 °F 30.02 in Calm     94% 0.00 in 30 W/m2
07:09 47.3 °F 45.7 °F 30.02 in Calm     94% 0.00 in 33 W/m2
07:14 47.3 °F 45.7 °F 30.02 in Calm     94% 0.00 in 44 W/m2
07:19 47.4 °F 45.9 °F 30.03 in Calm     94.7% 0.00 in 100 W/m2
07:24 47.4 °F 46 °F 30.03 in WSW 0.3 mph 1.2 mph 94.8% 0.00 in 100 W/m2
07:29 47.6 °F 46.2 °F 30.03 in WSW 0.3 mph 1.2 mph 95% 0.00 in 77 W/m2
07:34 47.8 °F 46.4 °F 30.03 in WSW 0.2 mph 1.2 mph 95% 0.00 in 60 W/m2
07:39 47.9 °F 46.5 °F 30.03 in Calm   1.2 mph 95% 0.00 in 58 W/m2
07:44 48 °F 46.6 °F 30.03 in WSW 0.1 mph 1.2 mph 95% 0.00 in 56 W/m2
07:49 48.3 °F 46.9 °F 30.03 in Calm   1 mph 95% 0.00 in 65 W/m2
07:54 48.5 °F 47.1 °F 30.03 in WSW 0.2 mph 2.3 mph 95% 0.00 in 79 W/m2
07:59 48.6 °F 47.2 °F 30.03 in WSW 0.3 mph 2.3 mph 95% 0.00 in 81 W/m2
08:04 48.9 °F 47.5 °F 30.03 in WSW 0.3 mph 1.2 mph 95% 0.00 in 93 W/m2
08:09 49.2 °F 47.8 °F 30.03 in WSW 0.1 mph 1.2 mph 95% 0.00 in 100 W/m2
08:14 49.5 °F 48.1 °F 30.03 in South 0.8 mph 2.3 mph 95.2% 0.00 in 102 W/m2
08:19 49.7 °F 48.3 °F 30.03 in South 0.6 mph 2.3 mph 95% 0.00 in 109 W/m2
08:24 49.8 °F 48.4 °F 30.03 in South 0.4 mph 2 mph 95% 0.00 in 104 W/m2
08:29 50 °F 48.7 °F 30.03 in South 0.7 mph 2.3 mph 95.1% 0.00 in 143 W/m2
08:34 50.2 °F 48.8 °F 30.03 in SSE 0.6 mph 2.3 mph 95% 0.00 in 172 W/m2
08:39 50.4 °F 49 °F 30.03 in East 0.8 mph 2.3 mph 95% 0.00 in 157 W/m2
08:44 50.6 °F 49.2 °F 30.03 in East 0.1 mph 2.3 mph 95% 0.00 in 171 W/m2
08:49 50.8 °F 49.4 °F 30.03 in East 0.6 mph 2.3 mph 95% 0.00 in 183 W/m2
08:54 51 °F 49.8 °F 30.03 in East 0.9 mph 2.3 mph 95.4% 0.00 in 179 W/m2
08:59 51.3 °F 50 °F 30.03 in East 0.6 mph 2.3 mph 95.4% 0.00 in 178 W/m2
09:04 51.6 °F 50.2 °F 30.03 in East 0.2 mph 2.3 mph 95% 0.00 in 201 W/m2
09:09 51.8 °F 50.4 °F 30.02 in East 0.6 mph 2.3 mph 95% 0.00 in 216 W/m2
09:14 52 °F 50.6 °F 30.02 in East 0.6 mph 2.3 mph 95% 0.00 in 218 W/m2
09:19 52.1 °F 50.7 °F 30.02 in ESE 2 mph 4 mph 95% 0.00 in 542 W/m2
09:24 52.3 °F 50.9 °F 30.01 in East 3 mph 6 mph 95% 0.00 in 537 W/m2
09:29 52.5 °F 51.1 °F 30.00 in East 2.2 mph 6 mph 95% 0.00 in 487 W/m2
09:34 52.8 °F 51.4 °F 30.00 in ESE 3.5 mph 6 mph 95% 0.00 in 489 W/m2
09:39 53.1 °F 51.7 °F 30.00 in East 2.8 mph 6 mph 95% 0.00 in 491 W/m2
09:44 53.3 °F 51.9 °F 30.01 in NE 2.8 mph 7 mph 95% 0.00 in 501 W/m2
09:48 53.5 °F 51.9 °F 30.01 in NE 2.6 mph 7 mph 94.5% 0.00 in 519 W/m2
Saratoga, California, USA
Compliments of Weather Underground - 4 mb

WU-history PHP script courtesy of Juneau County Weather and modified for WU/TWC API use by Saratoga-weather.org

This script set is available on GitHub.

deformed-offering